Flight Track Log - Related Links

Times and Time Zones

All times are in EDT time to prevent confusion due to time zone crossing. See the N850JS flight status page for this flight to view local times or setup timezone preferences in your user account.

Time Position Orientation Groundspeed Altitude Reporting Facility
EDT Latitude Longitude Course Direction KTS MPH feet Rate Location/Type
Wed 01:43:20 PM 28.0000 -82.5333 360° North 138 159 1,500  Level Tampa TRACON
Wed 01:44:21 PM 28.0333 -82.5667 319° Northwest 187 215 2,200 1,333 Climbing Tampa TRACON
Wed 01:45:26 PM 28.0333 -82.6333 270° West 184 212 4,300 1,810 Climbing Tampa TRACON
Wed 01:46:27 PM 28.0167 -82.6833 249° West 177 204 6,000 1,686 Climbing Tampa TRACON
Wed 01:47:27 PM 27.9667 -82.6833 180° South 197 227 7,700 1,600 Climbing Tampa TRACON
Wed 01:48:27 PM 27.9167 -82.6667 164° South 209 241 9,200 1,474 Climbing Tampa TRACON
Wed 01:49:21 PM 27.8667 -82.6500 164° South 216 249 10,500 947 Climbing Tampa TRACON
Wed 01:50:21 PM 27.8000 -82.6167 156° South 253 291 11,000 181 Climbing Tampa TRACON
Wed 01:52:07 PM 27.6817 -82.5825 166° South 280 322 11,000 -36 Level Miami Center
Wed 01:53:07 PM 27.6117 -82.5581 163° South 280 322 10,900 -50 Descending Miami Center
Wed 01:54:07 PM 27.5375 -82.5331 163° South 280 322 10,900 50 Level Miami Center
Wed 01:55:07 PM 27.4678 -82.5086 163° South 280 322 11,000  Climbing Miami Center
Wed 01:56:07 PM 27.3978 -82.4842 163° South 275 316 10,900 -50 Descending Miami Center
Wed 01:57:07 PM 27.3256 -82.4597 163° South 275 316 10,900  Level Miami Center
Wed 01:58:07 PM 27.2536 -82.4350 163° South 275 316 10,900  Level Miami Center
Wed 01:59:07 PM 27.1833 -82.4131 164° South 275 316 10,900 50 Level Miami Center
Wed 02:00:07 PM 27.1114 -82.3886 163° South 275 316 11,000  Climbing Miami Center
Wed 02:01:07 PM 27.0414 -82.3644 163° South 275 316 10,900 -50 Descending Miami Center
Wed 02:02:07 PM 26.9650 -82.3397 164° South 269 310 10,900  Level Miami Center
Wed 02:03:07 PM 26.9100 -82.3022 149° Southeast 259 298 10,900 -200 Level Miami Center
Wed 02:04:07 PM 26.8583 -82.2369 132° Southeast 265 305 10,500 -400 Descending Miami Center
Wed 02:05:07 PM 26.8106 -82.1697 129° Southeast 278 320 10,100 -650 Descending Miami Center
Wed 02:06:07 PM 26.7608 -82.1022 130° Southeast 285 328 9,200 -1,200 Descending Miami Center
Wed 02:07:07 PM 26.7111 -82.0328 129° Southeast 285 328 7,700 -2,050 Descending Miami Center
Wed 02:08:07 PM 26.6589 -81.9747 135° Southeast 279 321 5,100 -2,600 Descending Miami Center
Wed 02:16:00 PM 26.5749 -81.8735 133° Southeast  Level FlightAware Approximate
Wed 02:23:00 PM 26.5866 -81.8633 318° Northwest  Level Estimated
Wed 02:24:00 PM 26.5866 -81.8633 140° Southeast  Level Estimated
Wed 02:25:00 PM 26.5866 -81.8633 140° Southeast  Level Estimated
Wed 02:26:00 PM 26.5866 -81.8633 140° Southeast  Level Estimated
Wed 02:27:00 PM 26.5866 -81.8633 127° Southeast  Level Estimated
Wed 02:28:00 PM 26.5866 -81.8633 318° Northwest  Level Estimated

Login

Don't have an account? Register now (free) for customized features, flight alerts, and more!